sensor_id;sensor_type;location;lat;lon;timestamp;temperature;humidity
2929;DHT22;1474;51.460;7.150;2022-12-26T00:02:00;11.40;99.90
2929;DHT22;1474;51.460;7.150;2022-12-26T00:04:27;11.40;99.90
2929;DHT22;1474;51.460;7.150;2022-12-26T00:06:56;11.40;99.90
2929;DHT22;1474;51.460;7.150;2022-12-26T00:09:23;11.40;99.90
2929;DHT22;1474;51.460;7.150;2022-12-26T00:11:50;11.30;99.90
2929;DHT22;1474;51.460;7.150;2022-12-26T00:14:16;11.30;99.90
2929;DHT22;1474;51.460;7.150;2022-12-26T00:16:44;11.40;99.90
2929;DHT22;1474;51.460;7.150;2022-12-26T00:19:12;11.30;99.90
2929;DHT22;1474;51.460;7.150;2022-12-26T00:21:40;11.30;99.90
2929;DHT22;1474;51.460;7.150;2022-12-26T00:24:09;11.40;99.90
2929;DHT22;1474;51.460;7.150;2022-12-26T00:26:37;11.40;99.90
2929;DHT22;1474;51.460;7.150;2022-12-26T00:29:04;11.40;99.90
2929;DHT22;1474;51.460;7.150;2022-12-26T00:31:32;11.40;99.90
2929;DHT22;1474;51.460;7.150;2022-12-26T00:33:59;11.40;99.90
2929;DHT22;1474;51.460;7.150;2022-12-26T00:36:27;11.40;99.90
2929;DHT22;1474;51.460;7.150;2022-12-26T00:38:55;11.50;99.90
2929;DHT22;1474;51.460;7.150;2022-12-26T00:41:21;11.50;99.90
2929;DHT22;1474;51.460;7.150;2022-12-26T00:43:48;11.40;99.90
2929;DHT22;1474;51.460;7.150;2022-12-26T00:46:15;11.40;99.90
2929;DHT22;1474;51.460;7.150;2022-12-26T00:48:42;11.40;99.90
2929;DHT22;1474;51.460;7.150;2022-12-26T00:51:09;11.40;99.90
2929;DHT22;1474;51.460;7.150;2022-12-26T00:53:35;11.30;99.90
2929;DHT22;1474;51.460;7.150;2022-12-26T00:56:04;11.40;99.90
2929;DHT22;1474;51.460;7.150;2022-12-26T00:58:30;11.30;99.90
2929;DHT22;1474;51.460;7.150;2022-12-26T01:01:20;11.30;99.90
2929;DHT22;1474;51.460;7.150;2022-12-26T01:03:47;11.30;99.90
2929;DHT22;1474;51.460;7.150;2022-12-26T01:06:13;11.20;99.90
2929;DHT22;1474;51.460;7.150;2022-12-26T01:08:39;11.20;99.90
2929;DHT22;1474;51.460;7.150;2022-12-26T01:11:08;11.10;99.90
2929;DHT22;1474;51.460;7.150;2022-12-26T01:13:35;11.10;99.90
2929;DHT22;1474;51.460;7.150;2022-12-26T01:16:01;11.10;99.90
2929;DHT22;1474;51.460;7.150;2022-12-26T01:18:27;11.10;99.90
2929;DHT22;1474;51.460;7.150;2022-12-26T01:20:58;11.20;99.90
2929;DHT22;1474;51.460;7.150;2022-12-26T01:23:24;11.10;99.90
2929;DHT22;1474;51.460;7.150;2022-12-26T01:25:50;11.10;99.90
2929;DHT22;1474;51.460;7.150;2022-12-26T01:28:15;11.10;99.90
2929;DHT22;1474;51.460;7.150;2022-12-26T01:30:41;11.10;99.90
2929;DHT22;1474;51.460;7.150;2022-12-26T01:33:06;11.10;99.90
2929;DHT22;1474;51.460;7.150;2022-12-26T01:35:32;11.10;99.90
2929;DHT22;1474;51.460;7.150;2022-12-26T01:37:58;11.20;99.90
2929;DHT22;1474;51.460;7.150;2022-12-26T01:40:24;11.10;99.90
2929;DHT22;1474;51.460;7.150;2022-12-26T01:42:50;11.10;99.90
2929;DHT22;1474;51.460;7.150;2022-12-26T01:45:28;11.10;99.90
2929;DHT22;1474;51.460;7.150;2022-12-26T01:48:02;11.10;99.90
2929;DHT22;1474;51.460;7.150;2022-12-26T01:53:28;11.10;99.90
2929;DHT22;1474;51.460;7.150;2022-12-26T01:56:00;11.10;99.90
2929;DHT22;1474;51.460;7.150;2022-12-26T01:58:32;11.10;99.90
2929;DHT22;1474;51.460;7.150;2022-12-26T02:01:01;11.10;99.90
2929;DHT22;1474;51.460;7.150;2022-12-26T02:03:28;11.20;99.90
2929;DHT22;1474;51.460;7.150;2022-12-26T02:06:13;11.10;99.90
2929;DHT22;1474;51.460;7.150;2022-12-26T02:08:40;11.20;99.90
2929;DHT22;1474;51.460;7.150;2022-12-26T02:14:14;11.10;99.90
2929;DHT22;1474;51.460;7.150;2022-12-26T02:16:40;11.20;99.90
2929;DHT22;1474;51.460;7.150;2022-12-26T02:19:17;11.10;99.90
2929;DHT22;1474;51.460;7.150;2022-12-26T02:24:49;11.10;99.90
2929;DHT22;1474;51.460;7.150;2022-12-26T02:30:34;11.10;99.90
2929;DHT22;1474;51.460;7.150;2022-12-26T02:33:15;11.10;99.90
2929;DHT22;1474;51.460;7.150;2022-12-26T02:46:30;11.10;99.90
2929;DHT22;1474;51.460;7.150;2022-12-26T02:52:33;11.10;99.90
2929;DHT22;1474;51.460;7.150;2022-12-26T02:55:25;11.10;99.90
2929;DHT22;1474;51.460;7.150;2022-12-26T02:58:38;11.10;99.90
2929;DHT22;1474;51.460;7.150;2022-12-26T03:01:44;11.10;99.90
2929;DHT22;1474;51.460;7.150;2022-12-26T03:04:31;11.10;99.90
2929;DHT22;1474;51.460;7.150;2022-12-26T03:07:21;11.10;99.90
2929;DHT22;1474;51.460;7.150;2022-12-26T03:10:16;11.10;99.90
2929;DHT22;1474;51.460;7.150;2022-12-26T03:13:05;11.10;99.90
2929;DHT22;1474;51.460;7.150;2022-12-26T03:15:42;11.10;99.90
2929;DHT22;1474;51.460;7.150;2022-12-26T03:18:30;11.10;99.90
2929;DHT22;1474;51.460;7.150;2022-12-26T03:20:58;11.10;99.90
2929;DHT22;1474;51.460;7.150;2022-12-26T03:23:25;11.00;99.90
2929;DHT22;1474;51.460;7.150;2022-12-26T03:25:54;11.00;99.90
2929;DHT22;1474;51.460;7.150;2022-12-26T03:28:39;11.00;99.90
2929;DHT22;1474;51.460;7.150;2022-12-26T03:31:08;11.00;99.90
2929;DHT22;1474;51.460;7.150;2022-12-26T03:33:38;11.00;99.90
2929;DHT22;1474;51.460;7.150;2022-12-26T03:41:31;11.00;99.90
2929;DHT22;1474;51.460;7.150;2022-12-26T03:44:28;11.00;99.90
2929;DHT22;1474;51.460;7.150;2022-12-26T03:53:30;11.00;99.90
2929;DHT22;1474;51.460;7.150;2022-12-26T03:56:24;11.00;99.90
2929;DHT22;1474;51.460;7.150;2022-12-26T03:59:16;10.90;99.90
2929;DHT22;1474;51.460;7.150;2022-12-26T04:02:05;10.90;99.90
2929;DHT22;1474;51.460;7.150;2022-12-26T04:04:51;10.90;99.90
2929;DHT22;1474;51.460;7.150;2022-12-26T04:07:40;10.90;99.90
2929;DHT22;1474;51.460;7.150;2022-12-26T04:10:31;10.90;99.90
2929;DHT22;1474;51.460;7.150;2022-12-26T04:16:41;10.90;99.90
2929;DHT22;1474;51.460;7.150;2022-12-26T04:27:41;10.80;99.90
2929;DHT22;1474;51.460;7.150;2022-12-26T04:30:25;10.70;99.90
2929;DHT22;1474;51.460;7.150;2022-12-26T04:33:18;10.60;99.90
2929;DHT22;1474;51.460;7.150;2022-12-26T04:36:15;10.60;99.90
2929;DHT22;1474;51.460;7.150;2022-12-26T04:39:03;10.60;99.90
2929;DHT22;1474;51.460;7.150;2022-12-26T04:41:50;10.60;99.90
2929;DHT22;1474;51.460;7.150;2022-12-26T04:44:35;10.70;99.90
2929;DHT22;1474;51.460;7.150;2022-12-26T04:47:02;10.70;99.90
2929;DHT22;1474;51.460;7.150;2022-12-26T04:49:27;10.60;99.90
2929;DHT22;1474;51.460;7.150;2022-12-26T04:52:12;10.60;99.90
2929;DHT22;1474;51.460;7.150;2022-12-26T04:54:39;10.60;99.90
2929;DHT22;1474;51.460;7.150;2022-12-26T04:57:06;10.60;99.90
2929;DHT22;1474;51.460;7.150;2022-12-26T04:59:32;10.60;99.90
2929;DHT22;1474;51.460;7.150;2022-12-26T05:01:58;10.60;99.90
2929;DHT22;1474;51.460;7.150;2022-12-26T05:04:42;10.60;99.90
2929;DHT22;1474;51.460;7.150;2022-12-26T05:07:29;10.60;99.90
2929;DHT22;1474;51.460;7.150;2022-12-26T05:10:25;10.60;99.90
2929;DHT22;1474;51.460;7.150;2022-12-26T05:12:52;10.50;99.90
2929;DHT22;1474;51.460;7.150;2022-12-26T05:15:18;10.50;99.90
2929;DHT22;1474;51.460;7.150;2022-12-26T05:17:44;10.40;99.90
2929;DHT22;1474;51.460;7.150;2022-12-26T05:20:28;10.40;99.90
2929;DHT22;1474;51.460;7.150;2022-12-26T05:23:21;10.40;99.90
2929;DHT22;1474;51.460;7.150;2022-12-26T05:26:19;10.40;99.90
2929;DHT22;1474;51.460;7.150;2022-12-26T05:29:04;10.40;99.90
2929;DHT22;1474;51.460;7.150;2022-12-26T05:31:30;10.30;99.90
2929;DHT22;1474;51.460;7.150;2022-12-26T05:33:55;10.30;99.90
2929;DHT22;1474;51.460;7.150;2022-12-26T05:36:47;10.30;99.90
2929;DHT22;1474;51.460;7.150;2022-12-26T05:39:13;10.30;99.90
2929;DHT22;1474;51.460;7.150;2022-12-26T05:41:39;10.20;99.90
2929;DHT22;1474;51.460;7.150;2022-12-26T05:44:06;10.20;99.90
2929;DHT22;1474;51.460;7.150;2022-12-26T05:46:32;10.20;99.90
2929;DHT22;1474;51.460;7.150;2022-12-26T05:48:58;10.20;99.90
2929;DHT22;1474;51.460;7.150;2022-12-26T05:51:23;10.20;99.90
2929;DHT22;1474;51.460;7.150;2022-12-26T05:53:50;10.20;99.90
2929;DHT22;1474;51.460;7.150;2022-12-26T05:56:17;10.10;99.90
2929;DHT22;1474;51.460;7.150;2022-12-26T05:58:43;10.10;99.90
2929;DHT22;1474;51.460;7.150;2022-12-26T06:01:14;10.10;99.90
2929;DHT22;1474;51.460;7.150;2022-12-26T06:03:41;10.10;99.90
2929;DHT22;1474;51.460;7.150;2022-12-26T06:06:11;10.10;99.90
2929;DHT22;1474;51.460;7.150;2022-12-26T06:08:37;10.10;99.90
2929;DHT22;1474;51.460;7.150;2022-12-26T06:11:09;10.10;99.90
2929;DHT22;1474;51.460;7.150;2022-12-26T06:13:35;10.10;99.90
2929;DHT22;1474;51.460;7.150;2022-12-26T06:16:09;10.20;99.90
2929;DHT22;1474;51.460;7.150;2022-12-26T06:18:35;10.20;99.90
2929;DHT22;1474;51.460;7.150;2022-12-26T06:21:05;10.20;99.90
2929;DHT22;1474;51.460;7.150;2022-12-26T06:23:31;10.10;99.90
2929;DHT22;1474;51.460;7.150;2022-12-26T06:25:57;10.10;99.90
2929;DHT22;1474;51.460;7.150;2022-12-26T06:28:24;10.20;99.90
2929;DHT22;1474;51.460;7.150;2022-12-26T06:30:51;10.10;99.90
2929;DHT22;1474;51.460;7.150;2022-12-26T06:33:17;10.20;99.90
2929;DHT22;1474;51.460;7.150;2022-12-26T06:35:43;10.20;99.90
2929;DHT22;1474;51.460;7.150;2022-12-26T06:38:08;10.20;99.90
2929;DHT22;1474;51.460;7.150;2022-12-26T06:40:40;10.20;99.90
2929;DHT22;1474;51.460;7.150;2022-12-26T06:43:07;10.20;99.90
2929;DHT22;1474;51.460;7.150;2022-12-26T06:45:33;10.20;99.90
2929;DHT22;1474;51.460;7.150;2022-12-26T06:47:58;10.20;99.90
2929;DHT22;1474;51.460;7.150;2022-12-26T06:50:24;10.20;99.90
2929;DHT22;1474;51.460;7.150;2022-12-26T06:52:50;10.20;99.90
2929;DHT22;1474;51.460;7.150;2022-12-26T06:55:16;10.20;99.90
2929;DHT22;1474;51.460;7.150;2022-12-26T06:57:41;10.30;99.90
2929;DHT22;1474;51.460;7.150;2022-12-26T07:00:07;10.30;99.90
2929;DHT22;1474;51.460;7.150;2022-12-26T07:02:33;10.30;99.90
2929;DHT22;1474;51.460;7.150;2022-12-26T07:04:59;10.30;99.90
2929;DHT22;1474;51.460;7.150;2022-12-26T07:07:24;10.30;99.90
2929;DHT22;1474;51.460;7.150;2022-12-26T07:09:50;10.30;99.90
2929;DHT22;1474;51.460;7.150;2022-12-26T07:12:15;10.30;99.90
2929;DHT22;1474;51.460;7.150;2022-12-26T07:14:45;10.30;99.90
2929;DHT22;1474;51.460;7.150;2022-12-26T07:17:10;10.20;99.90
2929;DHT22;1474;51.460;7.150;2022-12-26T07:19:36;10.30;99.90
2929;DHT22;1474;51.460;7.150;2022-12-26T07:22:02;10.30;99.90
2929;DHT22;1474;51.460;7.150;2022-12-26T07:24:27;10.30;99.90
2929;DHT22;1474;51.460;7.150;2022-12-26T07:26:53;10.30;99.90
2929;DHT22;1474;51.460;7.150;2022-12-26T07:29:18;10.30;99.90
2929;DHT22;1474;51.460;7.150;2022-12-26T07:31:46;10.30;99.90
2929;DHT22;1474;51.460;7.150;2022-12-26T07:34:12;10.30;99.90
2929;DHT22;1474;51.460;7.150;2022-12-26T07:36:38;10.40;99.90
2929;DHT22;1474;51.460;7.150;2022-12-26T07:39:04;10.40;99.90
2929;DHT22;1474;51.460;7.150;2022-12-26T07:41:30;10.40;99.90
2929;DHT22;1474;51.460;7.150;2022-12-26T07:44:14;10.40;99.90
2929;DHT22;1474;51.460;7.150;2022-12-26T07:46:40;10.40;99.90
2929;DHT22;1474;51.460;7.150;2022-12-26T07:49:06;10.40;99.90
2929;DHT22;1474;51.460;7.150;2022-12-26T07:51:32;10.40;99.90
2929;DHT22;1474;51.460;7.150;2022-12-26T07:53:58;10.40;99.90
2929;DHT22;1474;51.460;7.150;2022-12-26T07:56:24;10.40;99.90
2929;DHT22;1474;51.460;7.150;2022-12-26T07:58:50;10.40;99.90
2929;DHT22;1474;51.460;7.150;2022-12-26T08:01:17;10.30;99.90
2929;DHT22;1474;51.460;7.150;2022-12-26T08:03:43;10.30;99.90
2929;DHT22;1474;51.460;7.150;2022-12-26T08:06:10;10.30;99.90
2929;DHT22;1474;51.460;7.150;2022-12-26T08:08:36;10.30;99.90
2929;DHT22;1474;51.460;7.150;2022-12-26T08:11:04;10.30;99.90
2929;DHT22;1474;51.460;7.150;2022-12-26T08:13:30;10.30;99.90
2929;DHT22;1474;51.460;7.150;2022-12-26T08:15:56;10.40;99.90
2929;DHT22;1474;51.460;7.150;2022-12-26T08:18:22;10.30;99.90
2929;DHT22;1474;51.460;7.150;2022-12-26T08:20:48;10.30;99.90
2929;DHT22;1474;51.460;7.150;2022-12-26T08:23:14;10.40;99.90
2929;DHT22;1474;51.460;7.150;2022-12-26T08:25:39;10.40;99.90
2929;DHT22;1474;51.460;7.150;2022-12-26T08:28:05;10.40;99.90
2929;DHT22;1474;51.460;7.150;2022-12-26T08:30:31;10.40;99.90
2929;DHT22;1474;51.460;7.150;2022-12-26T08:32:57;10.30;99.90
2929;DHT22;1474;51.460;7.150;2022-12-26T08:35:22;10.30;99.90
2929;DHT22;1474;51.460;7.150;2022-12-26T08:37:48;10.30;99.90
2929;DHT22;1474;51.460;7.150;2022-12-26T08:40:13;10.30;99.90
2929;DHT22;1474;51.460;7.150;2022-12-26T08:42:39;10.30;99.90
2929;DHT22;1474;51.460;7.150;2022-12-26T08:45:05;10.30;99.90
2929;DHT22;1474;51.460;7.150;2022-12-26T08:47:31;10.30;99.90
2929;DHT22;1474;51.460;7.150;2022-12-26T08:49:56;10.40;99.90
2929;DHT22;1474;51.460;7.150;2022-12-26T08:52:22;10.40;99.90
2929;DHT22;1474;51.460;7.150;2022-12-26T08:54:48;10.30;99.90
2929;DHT22;1474;51.460;7.150;2022-12-26T08:57:13;10.40;99.90
2929;DHT22;1474;51.460;7.150;2022-12-26T08:59:40;10.40;99.90
2929;DHT22;1474;51.460;7.150;2022-12-26T09:02:05;10.40;99.90
2929;DHT22;1474;51.460;7.150;2022-12-26T09:04:31;10.40;99.90
2929;DHT22;1474;51.460;7.150;2022-12-26T09:06:56;10.40;99.90
2929;DHT22;1474;51.460;7.150;2022-12-26T09:09:22;10.40;99.90
2929;DHT22;1474;51.460;7.150;2022-12-26T09:11:48;10.30;99.90
2929;DHT22;1474;51.460;7.150;2022-12-26T09:14:13;10.30;99.90
2929;DHT22;1474;51.460;7.150;2022-12-26T09:16:42;10.30;99.90
2929;DHT22;1474;51.460;7.150;2022-12-26T09:19:13;10.30;99.90
2929;DHT22;1474;51.460;7.150;2022-12-26T09:21:41;10.30;99.90
2929;DHT22;1474;51.460;7.150;2022-12-26T09:24:10;10.30;99.90
2929;DHT22;1474;51.460;7.150;2022-12-26T09:26:37;10.30;99.90
2929;DHT22;1474;51.460;7.150;2022-12-26T09:29:03;10.30;99.90
2929;DHT22;1474;51.460;7.150;2022-12-26T09:31:31;10.30;99.90
2929;DHT22;1474;51.460;7.150;2022-12-26T09:33:59;10.20;99.90
2929;DHT22;1474;51.460;7.150;2022-12-26T09:36:28;10.10;99.90
2929;DHT22;1474;51.460;7.150;2022-12-26T09:38:55;10.20;99.90
2929;DHT22;1474;51.460;7.150;2022-12-26T09:44:11;10.20;99.90
2929;DHT22;1474;51.460;7.150;2022-12-26T09:51:39;10.30;99.90
2929;DHT22;1474;51.460;7.150;2022-12-26T09:54:09;10.30;99.90
2929;DHT22;1474;51.460;7.150;2022-12-26T09:56:37;10.30;99.90
2929;DHT22;1474;51.460;7.150;2022-12-26T09:59:13;10.40;99.90
2929;DHT22;1474;51.460;7.150;2022-12-26T10:01:39;10.40;99.90
2929;DHT22;1474;51.460;7.150;2022-12-26T10:04:34;10.40;99.90
2929;DHT22;1474;51.460;7.150;2022-12-26T10:07:49;10.50;99.90
2929;DHT22;1474;51.460;7.150;2022-12-26T10:10:10;10.60;99.90
2929;DHT22;1474;51.460;7.150;2022-12-26T10:18:47;10.50;99.90
2929;DHT22;1474;51.460;7.150;2022-12-26T10:21:40;10.60;99.90
2929;DHT22;1474;51.460;7.150;2022-12-26T10:24:19;10.50;99.90
2929;DHT22;1474;51.460;7.150;2022-12-26T10:26:58;10.50;99.90
2929;DHT22;1474;51.460;7.150;2022-12-26T10:29:34;10.50;99.90
2929;DHT22;1474;51.460;7.150;2022-12-26T10:32:03;10.50;99.90
2929;DHT22;1474;51.460;7.150;2022-12-26T10:34:30;10.50;99.90
2929;DHT22;1474;51.460;7.150;2022-12-26T10:37:01;10.50;99.90
2929;DHT22;1474;51.460;7.150;2022-12-26T10:39:44;10.50;99.90
2929;DHT22;1474;51.460;7.150;2022-12-26T10:42:32;10.50;99.90
2929;DHT22;1474;51.460;7.150;2022-12-26T10:44:59;10.50;99.90
2929;DHT22;1474;51.460;7.150;2022-12-26T10:47:38;10.60;99.90
2929;DHT22;1474;51.460;7.150;2022-12-26T10:50:04;10.60;99.90
2929;DHT22;1474;51.460;7.150;2022-12-26T10:52:36;10.70;99.90
2929;DHT22;1474;51.460;7.150;2022-12-26T10:55:03;10.80;99.90
2929;DHT22;1474;51.460;7.150;2022-12-26T10:57:35;10.80;99.90
2929;DHT22;1474;51.460;7.150;2022-12-26T11:00:06;10.80;99.90
2929;DHT22;1474;51.460;7.150;2022-12-26T11:02:38;10.80;99.90
2929;DHT22;1474;51.460;7.150;2022-12-26T11:05:11;10.80;99.90
2929;DHT22;1474;51.460;7.150;2022-12-26T11:07:47;10.80;99.90
2929;DHT22;1474;51.460;7.150;2022-12-26T11:10:25;10.90;99.90
2929;DHT22;1474;51.460;7.150;2022-12-26T11:12:54;10.90;99.90
2929;DHT22;1474;51.460;7.150;2022-12-26T11:15:31;10.80;99.90
2929;DHT22;1474;51.460;7.150;2022-12-26T11:18:26;10.80;99.90
2929;DHT22;1474;51.460;7.150;2022-12-26T11:20:53;10.80;99.90
2929;DHT22;1474;51.460;7.150;2022-12-26T11:23:24;10.80;99.90
2929;DHT22;1474;51.460;7.150;2022-12-26T11:25:53;10.80;99.90
2929;DHT22;1474;51.460;7.150;2022-12-26T11:28:29;10.80;99.90
2929;DHT22;1474;51.460;7.150;2022-12-26T11:30:55;10.80;99.90
2929;DHT22;1474;51.460;7.150;2022-12-26T11:33:27;10.80;99.90
2929;DHT22;1474;51.460;7.150;2022-12-26T11:36:07;10.80;99.90
2929;DHT22;1474;51.460;7.150;2022-12-26T11:38:47;10.80;99.90
2929;DHT22;1474;51.460;7.150;2022-12-26T11:46:59;10.90;99.90
2929;DHT22;1474;51.460;7.150;2022-12-26T11:49:34;10.80;99.90
2929;DHT22;1474;51.460;7.150;2022-12-26T12:00:40;10.80;99.90
2929;DHT22;1474;51.460;7.150;2022-12-26T12:14:26;10.90;99.90
2929;DHT22;1474;51.460;7.150;2022-12-26T12:19:53;10.80;99.90
2929;DHT22;1474;51.460;7.150;2022-12-26T12:22:31;10.80;99.90
2929;DHT22;1474;51.460;7.150;2022-12-26T12:28:10;11.10;99.90
2929;DHT22;1474;51.460;7.150;2022-12-26T12:30:47;11.10;99.90
2929;DHT22;1474;51.460;7.150;2022-12-26T12:34:15;11.20;99.90
2929;DHT22;1474;51.460;7.150;2022-12-26T12:39:20;11.30;99.90
2929;DHT22;1474;51.460;7.150;2022-12-26T12:42:12;11.30;99.90
2929;DHT22;1474;51.460;7.150;2022-12-26T12:50:54;11.20;99.90
2929;DHT22;1474;51.460;7.150;2022-12-26T13:02:01;9.80;99.90
2929;DHT22;1474;51.460;7.150;2022-12-26T13:04:36;9.50;99.90
2929;DHT22;1474;51.460;7.150;2022-12-26T13:07:08;9.30;99.90
2929;DHT22;1474;51.460;7.150;2022-12-26T13:09:45;9.10;99.90
2929;DHT22;1474;51.460;7.150;2022-12-26T13:12:23;9.20;99.90
2929;DHT22;1474;51.460;7.150;2022-12-26T13:14:59;9.00;99.90
2929;DHT22;1474;51.460;7.150;2022-12-26T13:17:34;9.00;99.90
2929;DHT22;1474;51.460;7.150;2022-12-26T13:22:38;9.10;99.90
2929;DHT22;1474;51.460;7.150;2022-12-26T13:25:25;9.00;99.90
2929;DHT22;1474;51.460;7.150;2022-12-26T13:27:55;9.00;99.90
2929;DHT22;1474;51.460;7.150;2022-12-26T13:30:34;9.00;99.90
2929;DHT22;1474;51.460;7.150;2022-12-26T13:33:00;9.00;99.90
2929;DHT22;1474;51.460;7.150;2022-12-26T13:35:49;9.10;99.90
2929;DHT22;1474;51.460;7.150;2022-12-26T13:38:15;9.10;99.90
2929;DHT22;1474;51.460;7.150;2022-12-26T13:40:55;9.00;99.90
2929;DHT22;1474;51.460;7.150;2022-12-26T13:43:59;9.10;99.90
2929;DHT22;1474;51.460;7.150;2022-12-26T13:49:36;9.20;99.90
2929;DHT22;1474;51.460;7.150;2022-12-26T14:08:35;9.40;99.90
2929;DHT22;1474;51.460;7.150;2022-12-26T14:11:41;9.40;99.90
2929;DHT22;1474;51.460;7.150;2022-12-26T14:14:28;9.20;99.90
2929;DHT22;1474;51.460;7.150;2022-12-26T14:20:01;9.00;99.90
2929;DHT22;1474;51.460;7.150;2022-12-26T14:27:52;8.90;99.90
2929;DHT22;1474;51.460;7.150;2022-12-26T14:31:11;8.90;99.90
2929;DHT22;1474;51.460;7.150;2022-12-26T14:38:55;8.80;99.90
2929;DHT22;1474;51.460;7.150;2022-12-26T14:41:23;8.70;99.90
2929;DHT22;1474;51.460;7.150;2022-12-26T14:44:09;8.70;99.90
2929;DHT22;1474;51.460;7.150;2022-12-26T14:49:22;8.60;99.90
2929;DHT22;1474;51.460;7.150;2022-12-26T14:51:49;8.50;99.90
2929;DHT22;1474;51.460;7.150;2022-12-26T14:56:47;8.40;99.90
2929;DHT22;1474;51.460;7.150;2022-12-26T14:59:33;8.30;99.90
2929;DHT22;1474;51.460;7.150;2022-12-26T15:02:08;8.30;99.90
2929;DHT22;1474;51.460;7.150;2022-12-26T15:07:43;8.20;99.90
2929;DHT22;1474;51.460;7.150;2022-12-26T15:10:55;8.10;99.90
2929;DHT22;1474;51.460;7.150;2022-12-26T15:16:27;8.00;99.90
2929;DHT22;1474;51.460;7.150;2022-12-26T15:32:16;7.80;99.90
2929;DHT22;1474;51.460;7.150;2022-12-26T15:35:03;7.80;99.90
2929;DHT22;1474;51.460;7.150;2022-12-26T15:37:58;7.70;99.90
2929;DHT22;1474;51.460;7.150;2022-12-26T15:40:32;7.70;99.90
2929;DHT22;1474;51.460;7.150;2022-12-26T15:43:30;7.70;99.90
2929;DHT22;1474;51.460;7.150;2022-12-26T15:49:01;7.80;99.90
2929;DHT22;1474;51.460;7.150;2022-12-26T15:54:17;7.70;99.90
2929;DHT22;1474;51.460;7.150;2022-12-26T16:08:08;7.50;99.90
2929;DHT22;1474;51.460;7.150;2022-12-26T16:10:37;7.50;99.90
2929;DHT22;1474;51.460;7.150;2022-12-26T16:13:14;7.50;99.90
2929;DHT22;1474;51.460;7.150;2022-12-26T16:15:51;7.40;99.90
2929;DHT22;1474;51.460;7.150;2022-12-26T16:18:20;7.30;99.90
2929;DHT22;1474;51.460;7.150;2022-12-26T16:20:48;7.30;99.90
2929;DHT22;1474;51.460;7.150;2022-12-26T16:23:36;7.20;99.90
2929;DHT22;1474;51.460;7.150;2022-12-26T16:26:02;7.10;99.90
2929;DHT22;1474;51.460;7.150;2022-12-26T16:28:38;7.10;99.90
2929;DHT22;1474;51.460;7.150;2022-12-26T16:31:05;7.10;99.90
2929;DHT22;1474;51.460;7.150;2022-12-26T16:33:37;7.10;99.90
2929;DHT22;1474;51.460;7.150;2022-12-26T16:36:04;7.10;99.90
2929;DHT22;1474;51.460;7.150;2022-12-26T16:38:31;7.00;99.90
2929;DHT22;1474;51.460;7.150;2022-12-26T16:40:57;7.00;99.90
2929;DHT22;1474;51.460;7.150;2022-12-26T16:43:32;7.00;99.90
2929;DHT22;1474;51.460;7.150;2022-12-26T16:46:03;7.00;99.90
2929;DHT22;1474;51.460;7.150;2022-12-26T16:48:30;7.00;99.90
2929;DHT22;1474;51.460;7.150;2022-12-26T16:51:05;7.00;99.90
2929;DHT22;1474;51.460;7.150;2022-12-26T16:58:50;7.00;99.90
2929;DHT22;1474;51.460;7.150;2022-12-26T17:01:19;6.90;99.90
2929;DHT22;1474;51.460;7.150;2022-12-26T17:03:53;6.70;99.90
2929;DHT22;1474;51.460;7.150;2022-12-26T17:06:37;6.60;99.90
2929;DHT22;1474;51.460;7.150;2022-12-26T17:09:11;6.60;99.90
2929;DHT22;1474;51.460;7.150;2022-12-26T17:11:51;6.50;99.90
2929;DHT22;1474;51.460;7.150;2022-12-26T17:14:22;6.50;99.90
2929;DHT22;1474;51.460;7.150;2022-12-26T17:17:00;6.40;99.90
2929;DHT22;1474;51.460;7.150;2022-12-26T17:19:28;6.40;99.90
2929;DHT22;1474;51.460;7.150;2022-12-26T17:25:31;6.30;99.90
2929;DHT22;1474;51.460;7.150;2022-12-26T17:30:35;6.20;99.90
2929;DHT22;1474;51.460;7.150;2022-12-26T17:33:10;6.20;99.90
2929;DHT22;1474;51.460;7.150;2022-12-26T17:35:37;6.30;99.90
2929;DHT22;1474;51.460;7.150;2022-12-26T17:38:10;6.20;99.90
2929;DHT22;1474;51.460;7.150;2022-12-26T17:40:39;6.20;99.90
2929;DHT22;1474;51.460;7.150;2022-12-26T17:45:39;6.20;99.90
2929;DHT22;1474;51.460;7.150;2022-12-26T17:48:05;6.10;99.90
2929;DHT22;1474;51.460;7.150;2022-12-26T17:50:37;6.10;99.90
2929;DHT22;1474;51.460;7.150;2022-12-26T17:55:52;6.00;99.90
2929;DHT22;1474;51.460;7.150;2022-12-26T17:58:17;6.00;99.90
2929;DHT22;1474;51.460;7.150;2022-12-26T18:00:44;6.00;99.90
2929;DHT22;1474;51.460;7.150;2022-12-26T18:03:09;6.00;99.90
2929;DHT22;1474;51.460;7.150;2022-12-26T18:05:35;5.90;99.90
2929;DHT22;1474;51.460;7.150;2022-12-26T18:08:02;5.90;99.90
2929;DHT22;1474;51.460;7.150;2022-12-26T18:10:31;5.90;99.90
2929;DHT22;1474;51.460;7.150;2022-12-26T18:12:57;5.90;99.90
2929;DHT22;1474;51.460;7.150;2022-12-26T18:15:25;5.90;99.90
2929;DHT22;1474;51.460;7.150;2022-12-26T18:17:52;5.90;99.90
2929;DHT22;1474;51.460;7.150;2022-12-26T18:20:21;5.90;99.90
2929;DHT22;1474;51.460;7.150;2022-12-26T18:22:47;5.90;99.90
2929;DHT22;1474;51.460;7.150;2022-12-26T18:25:14;5.80;99.90
2929;DHT22;1474;51.460;7.150;2022-12-26T18:27:40;5.80;99.90
2929;DHT22;1474;51.460;7.150;2022-12-26T18:30:15;5.80;99.90
2929;DHT22;1474;51.460;7.150;2022-12-26T18:32:41;5.80;99.90
2929;DHT22;1474;51.460;7.150;2022-12-26T18:35:07;5.70;99.90
2929;DHT22;1474;51.460;7.150;2022-12-26T18:37:32;5.70;99.90
2929;DHT22;1474;51.460;7.150;2022-12-26T18:39:58;5.60;99.90
2929;DHT22;1474;51.460;7.150;2022-12-26T18:42:24;5.60;99.90
2929;DHT22;1474;51.460;7.150;2022-12-26T18:44:50;5.60;99.90
2929;DHT22;1474;51.460;7.150;2022-12-26T18:47:18;5.50;99.90
2929;DHT22;1474;51.460;7.150;2022-12-26T18:49:44;5.60;99.90
2929;DHT22;1474;51.460;7.150;2022-12-26T18:52:11;5.60;99.90
2929;DHT22;1474;51.460;7.150;2022-12-26T18:54:37;5.50;99.90
2929;DHT22;1474;51.460;7.150;2022-12-26T18:57:04;5.50;99.90
2929;DHT22;1474;51.460;7.150;2022-12-26T18:59:30;5.40;99.90
2929;DHT22;1474;51.460;7.150;2022-12-26T19:01:55;5.40;99.90
2929;DHT22;1474;51.460;7.150;2022-12-26T19:04:21;5.30;99.90
2929;DHT22;1474;51.460;7.150;2022-12-26T19:06:47;5.20;99.90
2929;DHT22;1474;51.460;7.150;2022-12-26T19:09:13;5.30;99.90
2929;DHT22;1474;51.460;7.150;2022-12-26T19:11:40;5.20;99.90
2929;DHT22;1474;51.460;7.150;2022-12-26T19:14:07;5.20;99.90
2929;DHT22;1474;51.460;7.150;2022-12-26T19:16:35;5.10;99.90
2929;DHT22;1474;51.460;7.150;2022-12-26T19:19:01;5.10;99.90
2929;DHT22;1474;51.460;7.150;2022-12-26T19:21:27;5.00;99.90
2929;DHT22;1474;51.460;7.150;2022-12-26T19:23:53;5.00;99.90
2929;DHT22;1474;51.460;7.150;2022-12-26T19:26:19;5.00;99.90
2929;DHT22;1474;51.460;7.150;2022-12-26T19:28:52;5.00;99.90
2929;DHT22;1474;51.460;7.150;2022-12-26T19:31:18;5.00;99.90
2929;DHT22;1474;51.460;7.150;2022-12-26T19:33:44;5.00;99.90
2929;DHT22;1474;51.460;7.150;2022-12-26T19:36:10;4.90;99.90
2929;DHT22;1474;51.460;7.150;2022-12-26T19:38:36;5.00;99.90
2929;DHT22;1474;51.460;7.150;2022-12-26T19:41:13;4.90;99.90
2929;DHT22;1474;51.460;7.150;2022-12-26T19:43:39;4.90;99.90
2929;DHT22;1474;51.460;7.150;2022-12-26T19:46:11;4.90;99.90
2929;DHT22;1474;51.460;7.150;2022-12-26T19:48:37;4.90;99.90
2929;DHT22;1474;51.460;7.150;2022-12-26T19:51:14;4.90;99.90
2929;DHT22;1474;51.460;7.150;2022-12-26T19:53:41;4.80;99.90
2929;DHT22;1474;51.460;7.150;2022-12-26T19:56:19;4.80;99.90
2929;DHT22;1474;51.460;7.150;2022-12-26T19:58:45;4.70;99.90
2929;DHT22;1474;51.460;7.150;2022-12-26T20:01:14;4.80;99.90
2929;DHT22;1474;51.460;7.150;2022-12-26T20:03:40;4.70;99.90
2929;DHT22;1474;51.460;7.150;2022-12-26T20:06:15;4.70;99.90